Crater Lake National Park, OR

3:44 PM PDT on August 27, 2014 (GMT -0700)
RAWS CHILOQUIN OR US | Change Station
CLOSE
Current Station
Personal Weather Station
Location: Sprague River, OR
Elevation: 4419 ft
Nearby Weather Stations

Elev 4419 ft 42.58 °N, 121.89 °W | Updated 48 minutes ago

Clear
Clear
87 °F
Feels Like 84 °F
N
8
Wind Variable Wind from SW
Gusts 14.0 mph

Today
High -- | Low -- °F
--% Chance of Precip.
Yesterday
High -- | Low -- °F
Precip. -- in
6:27 AM 7:49 PM
Waxing Crescent, 5% visible
Pressure 30.03 in
Visibility 10.0 miles
Clouds Clear
Heat Index 84 °F
Dew Point 41 °F
Humidity 20%
Rainfall 0.00 in
Snow Depth 0 in , 0 in
UV 8 out of 12
Pollen 6.30 out of 12
Air Quality Not available.
Flu Activity Not available.
METAR KLMT 272153Z 21007KT 10SM FU CLR 31/04 A3015 RMK AO2 SLP167 T03060039

More Conditions Fewer Conditions

Pressure 30.03 in
Visibility 10.0 miles
Clouds Clear
Heat Index 84 °F
Dew Point 41 °F
Humidity 20%
Rainfall 0.00 in
Snow Depth 0 in , 0 in
UV 8 out of 12
Pollen 6.30 out of 12
Air Quality Not available.
Flu Activity Not available.
METAR KLMT 272153Z 21007KT 10SM FU CLR 31/04 A3015 RMK AO2 SLP167 T03060039

More Conditions Fewer Conditions

10-Day Weather Forecast

Almanac

Astronomy

Aug. 27, 2014 Rise Set
Actual Time 6:27 AM PDT 7:49 PM PDT
Civil Twilight 5:57 AM PDT 8:19 PM PDT
Nautical Twilight 5:22 AM PDT 8:54 PM PDT
Astronomical Twilight 4:44 AM PDT 9:31 PM PDT
Moon 8:31 AM PDT 8:40 PM PDT
Length of Visible Light 14h 21m
Length of Day
13h 22m
Tomorrow will be 2m 43s shorter.
Waxing Crescent, 5% of the Moon is Illuminated
Today
Waxing Crescent
Sep 2
First Quarter
Sep 8
Full
Sep 15
Last Quarter
Sep 24
New

Today's Extremes

State Highs State Lows

Community

WunderPhotos

Upload Photos

1,747,805 photos uploaded!

Nearby

Snow Depth

Station Depth Elevation
Sevenmile Marsh 0 in 6200 ft
Cold Springs Camp 0 in 6100 ft
Fish Lake 0 in 4665 ft
Strawberry 0 in 5760 ft
Silver Creek 0 in 5720 ft

Earthquake Activity

City Distance Mag. Time & Date
No recent earthquake activity has been reported nearby.
Minimum magnitude displayed is 2.5.

Coastal Water Temperatures

Place Temperature
No Stations Reporting

Nearby Weather Stations